Grapevine, Arkansas
Current Conditions -  °F | °C
As of 2:53 AM on Monday 24 Nov 2014 (Local Time) from KPBF Reporting Station
Overcast Overcast  
Wind Chill: 54°   Ceiling: 2500
Heat Index: 54°   Visibility: 10mi
Dew Point: 44°   Wind: 24mph
Humidity: 69%   Direction: 280°W
Pressure: 29.64"   Gusts: 33mph
Location:  34.15°N, 92.32°W
Report Text: KPBF 240853Z AUTO 28021G29KT 10SM OVC025 12/07 A2964 RMK AO2 PK WND 29029/0844 RAE53 PRESRR SLP037 P0000 60000 T01220067 53047
Loading
Personal Weather Stations






























Interactive Weather Map New forecast layout! Learn more

10-Day Weather Forecast

Advertisements
Track Severe Weather on mobile